Weather reports worldwide

Advertisment
Lus-La-Croix-Haute, France (7587): temperature & dewpoint: 08.07.2020 11:00:00 - 14.07.2020 11:00:00 (CEST)Lus-La-Croix-Haute, France (7587): wind speed & gusts: 08.07.2020 11:00:00 - 14.07.2020 11:00:00 (CEST)Lus-La-Croix-Haute, France (7587): wind direction: 08.07.2020 11:00:00 - 14.07.2020 11:00:00 (CEST)Lus-La-Croix-Haute, France (7587): precipitation: 08.07.2020 11:00:00 - 14.07.2020 11:00:00 (CEST)
Date & Time tt [°C] td [°C] ff [km/h] ff [kn] fx [km/h] fx [kn] dd rr [mm]
14.07.2020 11:00:00 20,0 7,7 9 5 29 16 NNW 0,0
14.07.2020 10:00:00 18,7 8,1 11 6 24 13 NW 0,0
14.07.2020 09:00:00 16,5 7,2 7 4 13 7 NNW 0,0
14.07.2020 08:00:00 10,2 7,1 0 0 9 5 N 0,0
14.07.2020 07:00:00 8,9 5,5 3 2 5 3 SE 0,0
14.07.2020 06:00:00 9,4 5,4 0 0 5 3 N 0,0
14.07.2020 05:00:00 10,2 5,0 0 0 8 4 N 0,0
14.07.2020 04:00:00 10,8 4,7 4 2 11 6 E 0,0
14.07.2020 03:00:00 11,1 4,5 4 2 13 7 NE 0,0
14.07.2020 02:00:00 11,6 4,3 0 0 10 5 N 0,0
14.07.2020 01:00:00 13,3 3,9 6 3 18 10 NNW 0,0
14.07.2020 00:00:00 12,9 4,1 7 4 17 9 N 0,0
13.07.2020 23:00:00 16,3 3,0 6 3 19 11 N 0,0
13.07.2020 22:00:00 17,1 4,7 8 4 37 20 N 0,0
13.07.2020 21:00:00 18,8 5,6 9 5 31 17 N 0,0
13.07.2020 20:00:00 20,7 7,3 13 7 44 24 NNW 0,0
13.07.2020 19:00:00 21,6 7,8 16 9 39 21 NNW 0,0
13.07.2020 18:00:00 21,0 9,6 16 9 32 18 NW 0,0
13.07.2020 17:00:00 21,5 10,3 16 9 28 15 NW 0,0
13.07.2020 16:00:00 22,0 11,1 15 8 40 22 NNW 0,0
13.07.2020 15:00:00 24,8 12,4 14 8 - - NNW 0,0
13.07.2020 14:00:00 24,3 8,3 8 5 26 14 S 0,0
13.07.2020 13:00:00 23,0 9,7 4 2 16 8 W 0,0
13.07.2020 12:00:00 22,4 9,5 2 1 16 9 NW 0,0
13.07.2020 11:00:00 20,8 12,7 7 4 15 8 WNW 0,0
13.07.2020 10:00:00 19,3 13,2 3 2 8 4 NNW 0,0
13.07.2020 09:00:00 15,1 12,6 2 1 7 4 SSE 0,0
13.07.2020 08:00:00 11,4 10,9 3 1 5 3 ENE 0,2
13.07.2020 07:00:00 10,0 9,4 0 0 8 4 N 0,0
13.07.2020 06:00:00 10,2 9,4 2 1 5 3 NNW 0,0
13.07.2020 05:00:00 10,7 9,9 0 0 5 3 N 0,0
13.07.2020 04:00:00 11,1 10,2 0 0 6 3 N 0,0
13.07.2020 03:00:00 11,8 10,5 2 1 6 3 NNW 0,0
13.07.2020 02:00:00 12,6 11,0 0 0 5 3 N 0,0
13.07.2020 01:00:00 13,6 11,5 0 0 6 3 N 0,0
13.07.2020 00:00:00 14,7 11,7 0 0 7 4 N 0,0
12.07.2020 23:00:00 15,4 11,8 2 1 13 7 NE 0,0
12.07.2020 22:00:00 16,7 12,2 5 3 19 10 N 0,0
12.07.2020 21:00:00 18,8 12,5 12 7 27 15 NW 0,0
12.07.2020 20:00:00 21,0 13,4 13 7 30 16 NW 0,0
12.07.2020 19:00:00 20,8 13,5 16 8 31 17 WNW 0,0
12.07.2020 18:00:00 22,6 13,4 16 9 33 18 NW 0,0
12.07.2020 17:00:00 23,6 13,2 21 11 39 21 WNW 0,0
12.07.2020 16:00:00 25,1 14,5 19 10 38 20 WNW 0,0
12.07.2020 15:00:00 25,6 14,1 17 9 31 17 NW 0,0
12.07.2020 14:00:00 25,0 13,2 16 9 35 19 WNW 0,0
12.07.2020 13:00:00 24,2 13,1 16 8 34 18 WNW 0,0
12.07.2020 12:00:00 22,4 13,2 11 6 23 12 NW 0,0
12.07.2020 11:00:00 20,4 11,6 10 6 24 13 WNW 0,0
12.07.2020 10:00:00 18,8 10,9 5 3 16 9 W 0,0
12.07.2020 09:00:00 17,0 9,9 0 0 8 4 N 0,0
12.07.2020 08:00:00 13,3 10,1 4 2 8 4 E 0,0
12.07.2020 07:00:00 11,3 8,5 2 1 10 6 NE 0,0
12.07.2020 06:00:00 11,4 8,1 2 1 9 5 SE 0,0
12.07.2020 05:00:00 11,4 7,9 3 2 11 6 NNE 0,0
12.07.2020 04:00:00 11,8 7,7 4 2 14 8 ENE 0,0
12.07.2020 03:00:00 12,8 7,9 7 4 23 12 N 0,0
12.07.2020 02:00:00 13,4 8,2 6 4 23 12 N 0,0
12.07.2020 01:00:00 12,8 8,3 9 5 27 15 NNW 0,0
12.07.2020 00:00:00 13,1 8,6 10 5 23 12 NNW 0,0
11.07.2020 23:00:00 14,6 9,0 7 4 27 14 NE 0,0
11.07.2020 22:00:00 15,2 9,3 7 4 34 18 N 0,0
11.07.2020 21:00:00 16,5 9,9 16 9 - - NNW 0,0
11.07.2020 20:00:00 18,3 10,9 11 6 41 22 NNW 0,0
11.07.2020 19:00:00 20,4 11,6 16 9 46 25 NNW 0,0
11.07.2020 18:00:00 19,0 10,8 19 10 40 22 NNW 0,0
11.07.2020 17:00:00 19,2 11,5 5 3 - - ENE 0,0
11.07.2020 16:00:00 18,7 12,4 8 4 33 18 N 0,0
11.07.2020 15:00:00 17,8 12,3 14 8 33 18 NNW 0,0
11.07.2020 14:00:00 16,5 12,6 12 6 37 20 N 0,0
11.07.2020 13:00:00 15,3 12,1 18 10 39 21 NNW 0,0
11.07.2020 12:00:00 14,9 12,4 16 9 37 20 NNW 0,0
11.07.2020 11:00:00 14,7 12,9 19 10 43 23 NNW 0,0
11.07.2020 10:00:00 15,4 13,6 13 7 28 15 NW 0,0
11.07.2020 09:00:00 14,9 13,4 16 9 28 15 NW 0,0
11.07.2020 08:00:00 14,8 13,2 6 3 26 14 N 0,0
11.07.2020 07:00:00 13,5 12,2 0 0 18 10 N 0,0
11.07.2020 06:00:00 13,7 12,6 3 1 23 12 NW 0,2
11.07.2020 05:00:00 13,7 13,2 14 8 29 16 NNW 0,0
11.07.2020 04:00:00 12,6 11,7 3 2 15 8 ENE 0,0
11.07.2020 03:00:00 12,7 11,9 5 3 15 8 N 0,0
11.07.2020 02:00:00 13,3 12,4 3 2 7 4 NNE 0,0
11.07.2020 01:00:00 14,3 13,5 3 1 8 4 SE 0,0
11.07.2020 00:00:00 14,8 13,7 5 3 16 8 N 0,8
10.07.2020 23:00:00 15,3 14,0 3 2 19 10 NW 0,6
10.07.2020 22:00:00 16,0 14,0 9 5 51 27 N 11,1
10.07.2020 21:00:00 20,0 13,7 18 10 34 18 WNW 0,2
10.07.2020 20:00:00 23,1 13,0 11 6 25 14 NW 0,0
10.07.2020 19:00:00 24,6 13,8 13 7 27 15 NW 0,0
10.07.2020 18:00:00 29,3 12,3 7 4 29 16 W 0,0
10.07.2020 17:00:00 29,3 12,7 10 6 35 19 WNW 0,0
10.07.2020 16:00:00 29,2 12,2 18 10 32 18 WNW 0,0
10.07.2020 15:00:00 28,9 11,0 14 8 34 19 NW 0,0
10.07.2020 14:00:00 28,2 11,7 15 8 30 16 WNW 0,0
10.07.2020 13:00:00 28,1 11,2 6 4 26 14 WSW 0,0
10.07.2020 12:00:00 27,5 11,5 10 6 26 14 SSW 0,0
10.07.2020 11:00:00 25,4 11,6 4 2 10 5 S 0,0
10.07.2020 10:00:00 21,6 11,9 3 2 7 4 WNW 0,0
10.07.2020 09:00:00 17,7 11,0 0 0 6 4 N 0,0
10.07.2020 08:00:00 13,1 9,5 3 1 5 3 N 0,0
10.07.2020 07:00:00 10,9 7,8 3 1 8 4 SE 0,0
10.07.2020 06:00:00 10,8 7,3 3 2 7 4 SE 0,0
10.07.2020 05:00:00 11,2 7,3 0 0 6 4 N 0,0
10.07.2020 04:00:00 12,0 7,1 2 1 10 5 NNW 0,0
10.07.2020 03:00:00 12,4 6,7 4 2 7 4 SE 0,0
10.07.2020 02:00:00 12,8 6,4 0 0 7 4 N 0,0
10.07.2020 01:00:00 14,0 6,1 2 1 7 4 NW 0,0
10.07.2020 00:00:00 14,7 6,0 3 2 7 4 ESE 0,0
09.07.2020 23:00:00 16,2 6,0 2 1 7 4 NNE 0,0
09.07.2020 22:00:00 19,0 6,1 2 1 14 7 SE 0,0
09.07.2020 21:00:00 23,2 5,1 6 3 16 9 N 0,0
09.07.2020 20:00:00 27,1 5,9 6 4 24 13 WNW 0,0
09.07.2020 19:00:00 28,7 6,7 12 6 27 15 WNW 0,0
09.07.2020 18:00:00 29,5 7,4 11 6 29 16 WNW 0,0
09.07.2020 17:00:00 30,1 9,0 14 8 28 15 WNW 0,0
09.07.2020 16:00:00 30,3 8,7 13 7 29 16 WNW 0,0
09.07.2020 15:00:00 29,8 6,4 16 9 31 17 WNW 0,0
09.07.2020 14:00:00 29,5 5,5 12 7 25 14 WNW 0,0
09.07.2020 13:00:00 28,6 4,8 8 5 23 12 WNW 0,0
09.07.2020 12:00:00 26,5 7,0 10 6 29 16 WNW 0,0
09.07.2020 11:00:00 24,1 10,0 17 9 31 17 WNW 0,0
09.07.2020 10:00:00 22,9 10,0 9 5 23 13 NW 0,0
09.07.2020 09:00:00 18,2 11,7 6 4 10 5 SE 0,0
09.07.2020 08:00:00 11,3 8,9 2 1 5 3 SSE 0,0
09.07.2020 07:00:00 9,8 7,9 2 1 6 4 E 0,0
09.07.2020 06:00:00 9,6 7,5 2 1 6 3 E 0,0
09.07.2020 05:00:00 10,0 7,9 2 1 5 3 SE 0,0
09.07.2020 04:00:00 10,8 8,2 2 1 7 4 NNW 0,0
09.07.2020 03:00:00 11,4 8,3 0 0 6 3 N 0,0
09.07.2020 02:00:00 12,6 8,5 2 1 7 4 SW 0,0
09.07.2020 01:00:00 13,7 8,5 3 2 9 5 N 0,0
09.07.2020 00:00:00 15,5 8,7 4 2 14 8 N 0,0
08.07.2020 23:00:00 16,8 9,2 4 2 18 10 NNW 0,0
08.07.2020 22:00:00 17,6 9,2 9 5 27 15 N 0,0
08.07.2020 21:00:00 19,9 8,9 17 9 27 15 NW 0,0
08.07.2020 20:00:00 22,8 10,2 15 8 30 16 NNW 0,0
08.07.2020 19:00:00 24,6 11,5 18 10 36 20 WNW 0,0
08.07.2020 18:00:00 25,5 12,3 18 10 38 20 NW 0,0
08.07.2020 17:00:00 26,1 12,9 19 10 40 22 WNW 0,0
08.07.2020 16:00:00 26,6 13,0 19 10 - - WNW 0,0
08.07.2020 15:00:00 26,4 11,3 11 6 24 13 NW 0,0
08.07.2020 14:00:00 25,7 11,8 13 7 26 14 WNW 0,0
08.07.2020 13:00:00 24,2 11,5 12 7 26 14 WNW 0,0
08.07.2020 12:00:00 22,9 11,0 8 4 20 11 WNW 0,0
08.07.2020 11:00:00 20,4 9,3 3 2 12 6 SE 0,0

tt = temperature
td = dewpoint
ff = wind speed
fx = gusts
dd = wind direction
rr = precipitation

Next stations